Wetterstation Vordersexau
Wetterdaten: Woche 19.12.16 - 25.12.16 (KW51)
Datum Zeit Temp. A. Feuchte A. Luftdruck Regen Wind Richtung Taupunkt Windchill Windben
19.12.2016 00:00 2,2 C 76 % 1026,9 hPa 0,0 l/m 0,0 km/h O-SO -1,6 C 2,2 C 0,0 km/h
19.12.2016 01:00 2,1 C 76 % 1026,4 hPa 0,0 l/m 0,0 km/h O-SO -1,7 C 2,1 C 0,0 km/h
19.12.2016 02:00 1,9 C 76 % 1025,8 hPa 0,0 l/m 0,0 km/h O-SO -1,9 C 1,9 C 0,0 km/h
19.12.2016 03:00 1,8 C 76 % 1025,1 hPa 0,0 l/m 0,0 km/h O-NO -2,0 C 1,8 C 0,0 km/h
19.12.2016 04:00 1,8 C 75 % 1024,3 hPa 0,0 l/m 0,0 km/h O -2,1 C 1,8 C 0,0 km/h
19.12.2016 05:00 1,6 C 75 % 1023,6 hPa 0,0 l/m 0,0 km/h O -2,3 C 1,6 C 0,0 km/h
19.12.2016 06:00 1,5 C 75 % 1022,9 hPa 0,0 l/m 0,0 km/h N-NO -2,4 C 1,5 C 0,0 km/h
19.12.2016 07:00 2,2 C 74 % 1022,5 hPa 0,0 l/m 0,0 km/h N-NO -1,9 C 2,2 C 0,0 km/h
19.12.2016 08:00 2,6 C 75 % 1022,2 hPa 0,0 l/m 0,0 km/h N -1,4 C 2,6 C 0,0 km/h
19.12.2016 09:00 2,8 C 79 % 1021,8 hPa 0,0 l/m 0,0 km/h O-SO -0,5 C 2,8 C 0,0 km/h
19.12.2016 10:00 3,9 C 86 % 1021,5 hPa 0,0 l/m 0,0 km/h N 1,8 C 3,9 C 0,0 km/h
19.12.2016 11:00 6,3 C 86 % 1021,2 hPa 0,0 l/m 0,0 km/h N 4,1 C 6,3 C 0,0 km/h
19.12.2016 12:00 11,9 C 63 % 1021,0 hPa 0,0 l/m 0,0 km/h N-NO 5,1 C 11,9 C 0,0 km/h
19.12.2016 13:00 11,8 C 58 % 1020,2 hPa 0,0 l/m 0,0 km/h N-NO 3,8 C 11,8 C 0,0 km/h
19.12.2016 14:00 12,3 C 54 % 1020,0 hPa 0,0 l/m 0,0 km/h N-NO 3,3 C 12,3 C 0,0 km/h
19.12.2016 15:00 13,8 C 51 % 1020,1 hPa 0,0 l/m 0,0 km/h N-NO 3,8 C 13,8 C 0,0 km/h
19.12.2016 16:00 9,9 C 57 % 1020,2 hPa 0,0 l/m 0,0 km/h O-SO 1,8 C 9,9 C 0,0 km/h
19.12.2016 17:00 2,2 C 74 % 1020,9 hPa 0,0 l/m 0,0 km/h O-SO -1,9 C 2,2 C 0,0 km/h
19.12.2016 18:00 0,5 C 79 % 1021,0 hPa 0,0 l/m 0,0 km/h O-SO -2,7 C 0,5 C 0,0 km/h
19.12.2016 19:00 -0,9 C 82 % 1021,2 hPa 0,0 l/m 0,0 km/h N-NO -3,6 C -0,9 C 0,0 km/h
19.12.2016 20:00 -1,7 C 84 % 1021,3 hPa 0,0 l/m 0,0 km/h N-NO -4,0 C -1,7 C 0,0 km/h
19.12.2016 21:00 -2,1 C 85 % 1020,9 hPa 0,0 l/m 0,0 km/h NO -4,3 C -2,1 C 0,0 km/h
19.12.2016 22:00 -2,1 C 86 % 1020,9 hPa 0,0 l/m 0,0 km/h NO -4,1 C -2,1 C 0,0 km/h
19.12.2016 23:00 -2,6 C 86 % 1021,3 hPa 0,0 l/m 0,0 km/h NO -4,6 C -2,6 C 0,0 km/h
20.12.2016 00:00 -3,3 C 86 % 1020,9 hPa 0,0 l/m 0,0 km/h NO -5,3 C -3,3 C 0,0 km/h
20.12.2016 01:00 -3,4 C 87 % 1020,8 hPa 0,0 l/m 0,0 km/h NO -5,2 C -3,4 C 0,0 km/h
20.12.2016 02:00 -4,2 C 87 % 1020,5 hPa 0,0 l/m 0,0 km/h NO -6,0 C -4,2 C 0,0 km/h
20.12.2016 03:00 -3,1 C 86 % 1020,2 hPa 0,0 l/m 0,0 km/h NO -5,1 C -3,1 C 0,0 km/h
20.12.2016 04:00 -3,2 C 86 % 1019,7 hPa 0,0 l/m 0,0 km/h NO -5,2 C -3,2 C 0,0 km/h
20.12.2016 05:00 -2,8 C 86 % 1019,5 hPa 0,0 l/m 0,0 km/h NO -4,8 C -2,8 C 0,0 km/h
20.12.2016 06:00 -2,6 C 86 % 1019,3 hPa 0,0 l/m 0,0 km/h O -4,6 C -2,6 C 0,0 km/h
20.12.2016 07:00 -2,4 C 86 % 1019,2 hPa 0,0 l/m 0,0 km/h O-NO -4,4 C -2,4 C 0,0 km/h
20.12.2016 08:00 -2,1 C 85 % 1019,5 hPa 0,0 l/m 0,0 km/h O-NO -4,3 C -2,1 C 0,0 km/h
20.12.2016 09:00 -1,7 C 85 % 1019,7 hPa 0,0 l/m 0,0 km/h O-SO -3,9 C -1,7 C 0,0 km/h
20.12.2016 10:00 -1,1 C 85 % 1019,4 hPa 0,0 l/m 0,0 km/h O-SO -3,3 C -1,1 C 0,0 km/h
20.12.2016 11:00 -0,6 C 84 % 1019,8 hPa 0,0 l/m 0,0 km/h O-SO -3,0 C -0,6 C 0,0 km/h
20.12.2016 12:00 -0,1 C 84 % 1019,1 hPa 0,0 l/m 0,0 km/h O-NO -2,5 C -0,1 C 0,0 km/h
20.12.2016 13:00 0,3 C 84 % 1018,9 hPa 0,0 l/m 0,0 km/h O -2,1 C 0,3 C 0,0 km/h
20.12.2016 14:00 1,1 C 84 % 1018,9 hPa 0,0 l/m 0,0 km/h W-NW -1,3 C 1,1 C 0,0 km/h
20.12.2016 15:00 0,8 C 86 % 1019,4 hPa 0,0 l/m 0,0 km/h W -1,3 C 0,8 C 0,0 km/h
20.12.2016 16:00 0,4 C 87 % 1019,8 hPa 0,0 l/m 0,0 km/h W -1,5 C 0,4 C 0,0 km/h
20.12.2016 17:00 0,1 C 86 % 1020,5 hPa 0,0 l/m 0,0 km/h N-NW -2,0 C 0,1 C 0,0 km/h
20.12.2016 18:00 0,1 C 86 % 1020,9 hPa 0,0 l/m 0,0 km/h N-NW -2,0 C 0,1 C 0,0 km/h
20.12.2016 19:00 -0,1 C 86 % 1021,2 hPa 0,0 l/m 0,0 km/h N-NW -2,2 C -0,1 C 0,0 km/h
20.12.2016 20:00 -0,2 C 86 % 1021,4 hPa 0,0 l/m 0,0 km/h SO -2,3 C -0,2 C 0,0 km/h
20.12.2016 21:00 -0,3 C 86 % 1022,0 hPa 0,0 l/m 0,0 km/h SO -2,3 C -0,3 C 0,0 km/h
20.12.2016 22:00 -0,4 C 86 % 1022,5 hPa 0,0 l/m 0,0 km/h SO -2,4 C -0,4 C 0,0 km/h
20.12.2016 23:00 -0,2 C 86 % 1022,9 hPa 0,0 l/m 0,0 km/h SO -2,3 C -0,2 C 0,0 km/h
21.12.2016 00:00 -0,4 C 86 % 1023,0 hPa 0,0 l/m 0,0 km/h O-SO -2,4 C -0,4 C 0,0 km/h
21.12.2016 01:00 -1,1 C 86 % 1023,3 hPa 0,0 l/m 0,0 km/h O-SO -3,1 C -1,1 C 0,0 km/h
21.12.2016 02:00 -2,1 C 86 % 1023,7 hPa 0,0 l/m 0,0 km/h O -4,1 C -2,1 C 0,0 km/h
21.12.2016 03:00 -1,3 C 85 % 1024,0 hPa 0,0 l/m 0,0 km/h O-SO -3,5 C -1,3 C 0,0 km/h
21.12.2016 04:00 -1,4 C 85 % 1024,4 hPa 0,0 l/m 0,0 km/h O-SO -3,6 C -1,4 C 0,0 km/h
21.12.2016 05:00 -2,2 C 86 % 1024,8 hPa 0,0 l/m 0,0 km/h NO -4,2 C -2,2 C 0,0 km/h
21.12.2016 06:00 -2,1 C 85 % 1025,7 hPa 0,0 l/m 0,0 km/h SO -4,3 C -2,1 C 0,0 km/h
21.12.2016 07:00 -2,1 C 85 % 1026,1 hPa 0,0 l/m 0,0 km/h SO -4,3 C -2,1 C 0,0 km/h
21.12.2016 08:00 -2,5 C 84 % 1026,3 hPa 0,0 l/m 0,0 km/h SO -4,8 C -2,5 C 0,0 km/h
21.12.2016 09:00 -2,1 C 84 % 1027,2 hPa 0,0 l/m 0,0 km/h SW -4,4 C -2,1 C 0,0 km/h
21.12.2016 10:00 -1,9 C 84 % 1028,0 hPa 0,0 l/m 0,0 km/h NW -4,2 C -1,9 C 0,0 km/h
21.12.2016 11:00 -1,2 C 84 % 1028,1 hPa 0,0 l/m 0,0 km/h SO -3,5 C -1,2 C 0,0 km/h
21.12.2016 12:00 -0,2 C 85 % 1027,5 hPa 0,0 l/m 0,0 km/h NO -2,4 C -0,2 C 0,0 km/h
21.12.2016 13:00 -0,5 C 86 % 1027,4 hPa 0,0 l/m 0,0 km/h SO -2,5 C -0,5 C 0,0 km/h
21.12.2016 14:00 -0,1 C 86 % 1026,9 hPa 0,0 l/m 0,0 km/h SO -2,2 C -0,1 C 0,0 km/h
21.12.2016 15:00 0,3 C 87 % 1027,0 hPa 0,0 l/m 0,0 km/h SO -1,6 C 0,3 C 0,0 km/h
21.12.2016 16:00 -0,7 C 86 % 1027,1 hPa 0,0 l/m 0,0 km/h SO -2,7 C -0,7 C 0,0 km/h
21.12.2016 17:00 -1,1 C 86 % 1027,4 hPa 0,0 l/m 0,0 km/h SO -3,1 C -1,1 C 0,0 km/h
21.12.2016 18:00 -1,1 C 85 % 1027,6 hPa 0,0 l/m 0,0 km/h S-SO -3,3 C -1,1 C 0,0 km/h
21.12.2016 19:00 -1,2 C 85 % 1028,1 hPa 0,0 l/m 0,0 km/h S-SO -3,4 C -1,2 C 0,0 km/h
21.12.2016 20:00 -1,2 C 84 % 1028,5 hPa 0,0 l/m 0,0 km/h S-SO -3,5 C -1,2 C 0,0 km/h
21.12.2016 21:00 -1,3 C 84 % 1028,5 hPa 0,0 l/m 0,0 km/h S-SO -3,6 C -1,3 C 0,0 km/h
21.12.2016 22:00 -1,4 C 83 % 1028,4 hPa 0,0 l/m 0,0 km/h S-SO -3,9 C -1,4 C 0,0 km/h
21.12.2016 23:00 -1,6 C 83 % 1028,4 hPa 0,0 l/m 0,0 km/h SO -4,1 C -1,6 C 0,0 km/h
22.12.2016 00:00 -1,5 C 83 % 1028,6 hPa 0,0 l/m 0,0 km/h SO -4,0 C -1,5 C 0,0 km/h
22.12.2016 01:00 -1,3 C 82 % 1028,0 hPa 0,0 l/m 0,0 km/h W-SW -4,0 C -1,3 C 0,0 km/h
22.12.2016 02:00 -1,5 C 82 % 1028,6 hPa 0,0 l/m 0,0 km/h SO -4,2 C -1,5 C 0,0 km/h
22.12.2016 03:00 -1,4 C 81 % 1028,6 hPa 0,0 l/m 4,5 km/h O-SO -4,2 C -1,4 C 2,5 km/h
22.12.2016 04:00 -1,7 C 81 % 1028,8 hPa 0,0 l/m 0,0 km/h O-SO -4,5 C -1,7 C 0,0 km/h
22.12.2016 05:00 -2,1 C 81 % 1028,3 hPa 0,0 l/m 0,0 km/h O-NO -4,9 C -2,1 C 0,0 km/h
22.12.2016 06:00 -2,2 C 81 % 1028,5 hPa 0,0 l/m 0,0 km/h O-SO -5,0 C -2,2 C 0,0 km/h
22.12.2016 07:00 -1,9 C 81 % 1028,5 hPa 0,0 l/m 0,0 km/h O-SO -4,7 C -1,9 C 0,0 km/h
22.12.2016 08:00 -3,2 C 81 % 1028,3 hPa 0,0 l/m 0,0 km/h O-SO -6,0 C -3,2 C 0,0 km/h
22.12.2016 09:00 -2,2 C 80 % 1028,8 hPa 0,0 l/m 0,0 km/h S-SO -5,2 C -2,2 C 0,0 km/h
22.12.2016 10:00 -1,5 C 80 % 1029,2 hPa 0,0 l/m 0,0 km/h SO -4,5 C -1,5 C 0,0 km/h
22.12.2016 11:00 0,4 C 81 % 1029,1 hPa 0,0 l/m 0,0 km/h SO -2,5 C 0,4 C 0,0 km/h
22.12.2016 12:00 1,3 C 85 % 1028,7 hPa 0,0 l/m 0,0 km/h SO -0,9 C 1,3 C 0,0 km/h
22.12.2016 13:00 6,4 C 86 % 1028,5 hPa 0,0 l/m 0,0 km/h N-NO 4,2 C 6,4 C 0,0 km/h
22.12.2016 14:00 9,2 C 77 % 1028,0 hPa 0,0 l/m 0,0 km/h N-NO 5,4 C 9,2 C 0,0 km/h
22.12.2016 15:00 10,7 C 70 % 1027,9 hPa 0,0 l/m 0,0 km/h NO 5,5 C 10,7 C 0,0 km/h
22.12.2016 16:00 4,6 C 81 % 1028,1 hPa 0,0 l/m 0,0 km/h NO 1,6 C 4,6 C 0,0 km/h
22.12.2016 17:00 2,8 C 86 % 1028,0 hPa 0,0 l/m 0,0 km/h NO 0,7 C 2,8 C 0,0 km/h
22.12.2016 18:00 2,4 C 86 % 1028,3 hPa 0,0 l/m 0,0 km/h N-NO 0,3 C 2,4 C 0,0 km/h
22.12.2016 19:00 2,8 C 86 % 1028,8 hPa 0,0 l/m 0,0 km/h N-NO 0,7 C 2,8 C 0,0 km/h
22.12.2016 20:00 3,3 C 86 % 1029,1 hPa 0,0 l/m 0,0 km/h N-NO 1,2 C 3,3 C 0,0 km/h
22.12.2016 21:00 3,6 C 85 % 1029,5 hPa 0,0 l/m 0,0 km/h N-NO 1,3 C 3,6 C 0,0 km/h
22.12.2016 22:00 4,4 C 84 % 1029,9 hPa 0,0 l/m 0,0 km/h N-NO 1,9 C 4,4 C 0,0 km/h
22.12.2016 23:00 4,5 C 84 % 1030,8 hPa 0,0 l/m 0,0 km/h O-SO 2,0 C 4,5 C 0,0 km/h
23.12.2016 00:00 4,5 C 83 % 1030,9 hPa 0,0 l/m 0,0 km/h O-SO 1,9 C 4,5 C 0,0 km/h
23.12.2016 01:00 4,7 C 83 % 1030,9 hPa 0,0 l/m 0,0 km/h O-SO 2,1 C 4,7 C 0,0 km/h
23.12.2016 02:00 4,7 C 82 % 1031,3 hPa 0,0 l/m 0,0 km/h O-NO 1,9 C 4,7 C 0,0 km/h
23.12.2016 03:00 5,0 C 81 % 1031,9 hPa 0,0 l/m 0,0 km/h O-NO 2,0 C 5,0 C 0,0 km/h
23.12.2016 04:00 4,9 C 80 % 1031,9 hPa 0,0 l/m 0,0 km/h O-NO 1,7 C 4,9 C 0,0 km/h
23.12.2016 05:00 5,1 C 80 % 1032,1 hPa 0,0 l/m 0,0 km/h O-NO 1,9 C 5,1 C 0,0 km/h
23.12.2016 06:00 5,0 C 80 % 1032,5 hPa 0,0 l/m 0,0 km/h O-NO 1,8 C 5,0 C 0,0 km/h
23.12.2016 07:00 4,8 C 79 % 1032,9 hPa 0,0 l/m 3,2 km/h O-NO 1,5 C 4,8 C 1,8 km/h
23.12.2016 08:00 4,9 C 79 % 1033,5 hPa 0,0 l/m 0,0 km/h O-NO 1,6 C 4,9 C 0,0 km/h
23.12.2016 09:00 5,0 C 78 % 1033,5 hPa 0,0 l/m 0,0 km/h O-NO 1,5 C 5,0 C 0,0 km/h
23.12.2016 10:00 5,8 C 78 % 1033,4 hPa 0,0 l/m 0,0 km/h O-NO 2,3 C 5,8 C 0,0 km/h
23.12.2016 11:00 8,2 C 74 % 1033,0 hPa 0,0 l/m 0,0 km/h W 3,8 C 8,2 C 0,0 km/h
23.12.2016 12:00 6,9 C 82 % 1032,4 hPa 0,0 l/m 0,0 km/h S-SW 4,0 C 6,9 C 0,0 km/h
23.12.2016 13:00 6,9 C 83 % 1031,5 hPa 0,0 l/m 0,0 km/h W 4,2 C 6,9 C 0,0 km/h
23.12.2016 14:00 6,6 C 83 % 1031,0 hPa 0,0 l/m 0,0 km/h W 3,9 C 6,6 C 0,0 km/h
23.12.2016 15:00 6,3 C 82 % 1030,6 hPa 0,0 l/m 0,0 km/h W 3,5 C 6,3 C 0,0 km/h
23.12.2016 16:00 6,1 C 81 % 1030,4 hPa 0,0 l/m 0,0 km/h W 3,1 C 6,1 C 0,0 km/h
23.12.2016 17:00 5,7 C 81 % 1030,2 hPa 0,0 l/m 0,0 km/h W 2,7 C 5,7 C 0,0 km/h
23.12.2016 18:00 5,5 C 81 % 1029,9 hPa 0,0 l/m 0,0 km/h W 2,5 C 5,5 C 0,0 km/h
23.12.2016 19:00 5,4 C 81 % 1029,6 hPa 0,0 l/m 0,0 km/h W 2,4 C 5,4 C 0,0 km/h
23.12.2016 20:00 4,8 C 81 % 1029,7 hPa 0,0 l/m 0,0 km/h W 1,8 C 4,8 C 0,0 km/h
23.12.2016 21:00 5,1 C 80 % 1030,1 hPa 0,0 l/m 0,0 km/h S-SO 1,9 C 5,1 C 0,0 km/h
23.12.2016 22:00 5,1 C 79 % 1029,9 hPa 0,0 l/m 0,0 km/h W 1,8 C 5,1 C 0,0 km/h
23.12.2016 23:00 6,3 C 78 % 1029,2 hPa 0,0 l/m 0,0 km/h W-SW 2,8 C 6,3 C 0,0 km/h
24.12.2016 00:00 6,4 C 85 % 1029,0 hPa 0,0 l/m 10,4 km/h SW 4,1 C 3,4 C 5,8 km/h
24.12.2016 01:00 6,4 C 87 % 1029,9 hPa 0,0 l/m 20,1 km/h S-SW 4,4 C -1,4 C 11,2 km/h
24.12.2016 02:00 6,1 C 87 % 1029,7 hPa 0,0 l/m 18,1 km/h S-SW 4,1 C -1,0 C 10,1 km/h
24.12.2016 03:00 5,6 C 86 % 1029,7 hPa 0,0 l/m 5,8 km/h S 3,4 C 5,6 C 3,2 km/h
24.12.2016 04:00 6,1 C 85 % 1029,3 hPa 0,0 l/m 10,4 km/h SW 3,8 C 3,0 C 5,8 km/h
24.12.2016 05:00 6,9 C 83 % 1029,2 hPa 0,0 l/m 10,4 km/h W-SW 4,2 C 3,9 C 5,8 km/h
24.12.2016 06:00 6,9 C 82 % 1028,8 hPa 0,0 l/m 17,5 km/h S-SW 4,0 C 0,3 C 9,7 km/h
24.12.2016 07:00 7,5 C 79 % 1028,4 hPa 0,0 l/m 26,6 km/h S-SW 4,1 C -2,0 C 14,8 km/h
24.12.2016 08:00 7,6 C 79 % 1028,8 hPa 0,0 l/m 8,4 km/h S-SW 4,2 C 6,0 C 4,7 km/h
24.12.2016 09:00 7,9 C 81 % 1029,1 hPa 0,0 l/m 17,5 km/h S-SW 4,8 C 1,5 C 9,7 km/h
24.12.2016 10:00 8,5 C 80 % 1028,6 hPa 0,0 l/m 24,6 km/h SW 5,3 C -0,1 C 13,7 km/h
24.12.2016 11:00 8,8 C 80 % 1028,9 hPa 0,0 l/m 11,7 km/h SW 5,5 C 5,3 C 6,5 km/h
24.12.2016 12:00 8,8 C 81 % 1028,4 hPa 0,0 l/m 22,0 km/h SW 5,7 C 1,1 C 12,2 km/h
24.12.2016 13:00 9,3 C 82 % 1028,6 hPa 0,0 l/m 20,7 km/h SW 6,4 C 2,2 C 11,5 km/h
24.12.2016 14:00 10,6 C 79 % 1027,7 hPa 0,0 l/m 20,7 km/h W 7,1 C 3,8 C 11,5 km/h
24.12.2016 15:00 9,9 C 82 % 1028,9 hPa 0,0 l/m 20,7 km/h W 7,0 C 2,9 C 11,5 km/h
24.12.2016 16:00 9,1 C 84 % 1029,3 hPa 0,0 l/m 9,1 km/h S-SW 6,5 C 7,2 C 5,0 km/h
24.12.2016 17:00 8,3 C 85 % 1029,6 hPa 0,0 l/m 24,0 km/h W-SW 5,9 C -0,2 C 13,3 km/h
24.12.2016 18:00 6,5 C 86 % 1029,7 hPa 0,0 l/m 0,0 km/h W 4,3 C 6,5 C 0,0 km/h
24.12.2016 19:00 5,8 C 86 % 1030,2 hPa 0,0 l/m 0,0 km/h W 3,6 C 5,8 C 0,0 km/h
24.12.2016 20:00 5,2 C 86 % 1030,6 hPa 0,0 l/m 0,0 km/h W 3,1 C 5,2 C 0,0 km/h
24.12.2016 21:00 4,3 C 86 % 1030,2 hPa 0,0 l/m 0,0 km/h W-SW 2,2 C 4,3 C 0,0 km/h
24.12.2016 22:00 6,1 C 84 % 1030,0 hPa 0,0 l/m 16,2 km/h W 3,6 C -0,2 C 9,0 km/h
24.12.2016 23:00 6,8 C 86 % 1030,4 hPa 0,0 l/m 0,0 km/h W 4,6 C 6,8 C 0,0 km/h
25.12.2016 00:00 6,7 C 86 % 1030,2 hPa 0,0 l/m 0,0 km/h W 4,5 C 6,7 C 0,0 km/h
25.12.2016 01:00 6,1 C 86 % 1029,5 hPa 0,0 l/m 0,0 km/h W 3,9 C 6,1 C 0,0 km/h
25.12.2016 02:00 5,6 C 86 % 1029,2 hPa 0,0 l/m 0,0 km/h W-SW 3,4 C 5,6 C 0,0 km/h
25.12.2016 03:00 6,9 C 86 % 1029,6 hPa 0,0 l/m 5,2 km/h W 4,7 C 6,9 C 2,9 km/h
25.12.2016 04:00 7,2 C 85 % 1029,1 hPa 0,0 l/m 18,1 km/h W-SW 4,9 C 0,4 C 10,1 km/h
25.12.2016 05:00 7,1 C 85 % 1029,7 hPa 0,0 l/m 15,6 km/h SW 4,8 C 1,3 C 8,6 km/h
25.12.2016 06:00 7,3 C 84 % 1029,1 hPa 0,0 l/m 14,9 km/h S-SW 4,8 C 1,9 C 8,3 km/h
25.12.2016 07:00 7,3 C 82 % 1029,3 hPa 0,0 l/m 17,5 km/h S 4,4 C 0,8 C 9,7 km/h
25.12.2016 08:00 7,5 C 82 % 1029,6 hPa 0,0 l/m 21,4 km/h SW 4,6 C -0,4 C 11,9 km/h
25.12.2016 09:00 7,6 C 81 % 1030,3 hPa 0,0 l/m 4,5 km/h S 4,6 C 7,6 C 2,5 km/h
25.12.2016 10:00 9,4 C 77 % 1030,4 hPa 0,0 l/m 23,3 km/h S-SW 5,6 C 1,5 C 13,0 km/h
25.12.2016 11:00 9,1 C 76 % 1030,4 hPa 0,0 l/m 20,7 km/h S 5,1 C 1,9 C 11,5 km/h
25.12.2016 12:00 9,9 C 74 % 1029,6 hPa 0,0 l/m 21,4 km/h S-SW 5,5 C 2,7 C 11,9 km/h
25.12.2016 13:00 11,5 C 70 % 1028,7 hPa 0,0 l/m 23,3 km/h SW 6,2 C 4,3 C 13,0 km/h
25.12.2016 14:00 10,4 C 71 % 1028,2 hPa 0,0 l/m 24,6 km/h W-SW 5,4 C 2,5 C 13,7 km/h
25.12.2016 15:00 9,8 C 73 % 1028,2 hPa 0,0 l/m 18,8 km/h W 5,2 C 3,4 C 10,4 km/h
25.12.2016 16:00 9,3 C 75 % 1028,4 hPa 0,0 l/m 24,6 km/h W-SW 5,1 C 1,0 C 13,7 km/h
25.12.2016 17:00 8,8 C 77 % 1028,8 hPa 0,0 l/m 24,0 km/h W-SW 5,0 C 0,5 C 13,3 km/h
25.12.2016 18:00 8,5 C 78 % 1028,9 hPa 0,0 l/m 17,5 km/h W 4,9 C 2,3 C 9,7 km/h
25.12.2016 19:00 8,5 C 77 % 1028,2 hPa 0,0 l/m 22,7 km/h S-SW 4,7 C 0,5 C 12,6 km/h
25.12.2016 20:00 7,5 C 80 % 1029,0 hPa 0,0 l/m 0,0 km/h W 4,3 C 7,5 C 0,0 km/h
25.12.2016 21:00 6,4 C 82 % 1028,5 hPa 0,0 l/m 0,0 km/h SW 3,6 C 6,4 C 0,0 km/h
25.12.2016 22:00 5,1 C 84 % 1028,8 hPa 0,0 l/m 0,0 km/h W-SW 2,6 C 5,1 C 0,0 km/h
25.12.2016 23:00 5,1 C 85 % 1028,7 hPa 0,0 l/m 0,0 km/h SO 2,8 C 5,1 C 0,0 km/h
Min-Datum _ 20.12.16 19.12.16 20.12.16 - 19.12.16 - 20.12.16 20.12.16 19.12.16
_ Min-Zeit 02:10 15:10 13:10 - 00:10 - 02:10 02:10 00:10
Minimum _ -4,2 C 51 % 1018,9 hPa - 0,0 km/h - -6,0 C -4,2 C 0,0 km/h
Max-Datum _ 19.12.16 20.12.16 23.12.16 19.12.16 24.12.16 - 24.12.16 19.12.16 24.12.16
_ Max-Zeit 15:10 01:10 08:10 00:10 07:10 - 14:10 15:10 07:10
Maximum _ 13,8 C 87 % 1033,5 hPa 0,0 l/m 26,6 km/h
S-SW
- 7,1 C 13,8 C 14,8 km/h
S-SW
Durchschnitt _ 3,3 C 82 % 1026,8 hPa #0,0 l/m 3,8 km/h W 0,4 C 2,1 C 2,1 km/h
www.sexauwetter.de